This is the latest recevied weather packets stored in our database for station/object HB9HJL-11. If no packets are shown the sender has not sent any weather packets the latest 1 day(s).
| Time | Temp. | Humidity | Pressure | Rain* | Wind** | Luminosity | Snow |
|---|---|---|---|---|---|---|---|
| 1778192340 | 10° C | 79% | 947 hPa | - | - | - | - |
| 1778191440 | 10.56° C | 78% | 947 hPa | - | - | - | - |
| 1778190540 | 10.56° C | 77% | 947 hPa | - | - | - | - |
| 1778189640 | 10° C | 78% | 947 hPa | - | - | - | - |
| 1778188740 | 10.56° C | 77% | 946 hPa | - | - | - | - |
| 1778187840 | 10° C | 78% | 947 hPa | - | - | - | - |
| 1778186939 | 10° C | 78% | 947 hPa | - | - | - | - |
| 1778186039 | 10.56° C | 77% | 947 hPa | - | - | - | - |
| 1778185139 | 10.56° C | 77% | 946 hPa | - | - | - | - |
| 1778184239 | 10° C | 78% | 946 hPa | - | - | - | - |
| 1778183339 | 11.11° C | 76% | 946 hPa | - | - | - | - |
| 1778182439 | 10.56° C | 78% | 946 hPa | - | - | - | - |
| 1778181539 | 11.11° C | 76% | 945 hPa | - | - | - | - |
| 1778180639 | 11.67° C | 73% | 944 hPa | - | - | - | - |
| 1778179739 | 12.22° C | 74% | 945 hPa | - | - | - | - |
| 1778178839 | 12.78° C | 73% | 944 hPa | - | - | - | - |
| 1778177939 | 13.33° C | 71% | 943 hPa | - | - | - | - |
| 1778177038 | 13.33° C | 72% | 944 hPa | - | - | - | - |
| 1778176138 | 12.78° C | 71% | 943 hPa | - | - | - | - |
| 1778175238 | 13.33° C | 68% | 941 hPa | - | - | - | - |
| 1778174338 | 14.44° C | 64% | 939 hPa | - | - | - | - |
| 1778173438 | 15° C | 61% | 937 hPa | - | - | - | - |
| 1778172538 | 15° C | 61% | 936 hPa | - | - | - | - |
| 1778171638 | 15.56° C | 58% | 933 hPa | - | - | - | - |
| 1778170738 | 15.56° C | 58% | 932 hPa | - | - | - | - |
* Rain since midnight (hover to see other rain measurements)
** Current wind speed in m/s (hover to see current wind gust speed)